sensor_id;sensor_type;location;lat;lon;timestamp;temperature;humidity
37702;DHT22;23548;51.196;6.838;2023-03-03T00:02:24;1.40;99.90
37702;DHT22;23548;51.196;6.838;2023-03-03T00:04:50;1.30;99.90
37702;DHT22;23548;51.196;6.838;2023-03-03T00:07:16;1.30;99.90
37702;DHT22;23548;51.196;6.838;2023-03-03T00:09:48;1.40;99.90
37702;DHT22;23548;51.196;6.838;2023-03-03T00:12:26;1.40;99.90
37702;DHT22;23548;51.196;6.838;2023-03-03T00:14:52;1.30;99.90
37702;DHT22;23548;51.196;6.838;2023-03-03T00:17:23;1.30;99.90
37702;DHT22;23548;51.196;6.838;2023-03-03T00:19:50;1.30;99.90
37702;DHT22;23548;51.196;6.838;2023-03-03T00:22:41;1.20;99.90
37702;DHT22;23548;51.196;6.838;2023-03-03T00:25:29;1.20;99.90
37702;DHT22;23548;51.196;6.838;2023-03-03T00:28:22;1.30;99.90
37702;DHT22;23548;51.196;6.838;2023-03-03T00:30:45;1.40;99.90
37702;DHT22;23548;51.196;6.838;2023-03-03T00:33:28;1.30;99.90
37702;DHT22;23548;51.196;6.838;2023-03-03T00:36:09;1.30;99.90
37702;DHT22;23548;51.196;6.838;2023-03-03T00:38:47;1.40;99.90
37702;DHT22;23548;51.196;6.838;2023-03-03T00:41:25;1.40;99.90
37702;DHT22;23548;51.196;6.838;2023-03-03T00:43:52;1.50;99.90
37702;DHT22;23548;51.196;6.838;2023-03-03T00:46:22;1.60;99.90
37702;DHT22;23548;51.196;6.838;2023-03-03T00:48:49;1.70;99.90
37702;DHT22;23548;51.196;6.838;2023-03-03T00:53:47;1.80;99.90
37702;DHT22;23548;51.196;6.838;2023-03-03T00:56:13;1.90;99.90
37702;DHT22;23548;51.196;6.838;2023-03-03T00:58:39;1.90;99.90
37702;DHT22;23548;51.196;6.838;2023-03-03T01:01:05;1.90;99.90
37702;DHT22;23548;51.196;6.838;2023-03-03T01:03:31;1.90;99.90
37702;DHT22;23548;51.196;6.838;2023-03-03T01:05:57;2.00;99.90
37702;DHT22;23548;51.196;6.838;2023-03-03T01:08:23;2.00;99.90
37702;DHT22;23548;51.196;6.838;2023-03-03T01:10:51;2.00;99.90
37702;DHT22;23548;51.196;6.838;2023-03-03T01:13:19;2.10;99.90
37702;DHT22;23548;51.196;6.838;2023-03-03T01:15:46;2.10;99.90
37702;DHT22;23548;51.196;6.838;2023-03-03T01:18:12;2.10;99.90
37702;DHT22;23548;51.196;6.838;2023-03-03T01:20:38;2.00;99.90
37702;DHT22;23548;51.196;6.838;2023-03-03T01:23:04;2.00;99.90
37702;DHT22;23548;51.196;6.838;2023-03-03T01:25:30;2.10;99.90
37702;DHT22;23548;51.196;6.838;2023-03-03T01:27:56;2.10;99.90
37702;DHT22;23548;51.196;6.838;2023-03-03T01:30:22;2.10;99.90
37702;DHT22;23548;51.196;6.838;2023-03-03T01:32:48;2.10;99.90
37702;DHT22;23548;51.196;6.838;2023-03-03T01:35:14;2.20;99.90
37702;DHT22;23548;51.196;6.838;2023-03-03T01:37:40;2.30;99.90
37702;DHT22;23548;51.196;6.838;2023-03-03T01:40:12;2.40;99.90
37702;DHT22;23548;51.196;6.838;2023-03-03T01:42:38;2.40;99.90
37702;DHT22;23548;51.196;6.838;2023-03-03T01:45:36;2.40;99.90
37702;DHT22;23548;51.196;6.838;2023-03-03T01:50:53;2.30;99.90
37702;DHT22;23548;51.196;6.838;2023-03-03T01:53:26;2.20;99.90
37702;DHT22;23548;51.196;6.838;2023-03-03T01:55:53;2.20;99.90
37702;DHT22;23548;51.196;6.838;2023-03-03T01:58:28;2.20;99.90
37702;DHT22;23548;51.196;6.838;2023-03-03T02:01:01;2.20;99.90
37702;DHT22;23548;51.196;6.838;2023-03-03T02:03:29;2.10;99.90
37702;DHT22;23548;51.196;6.838;2023-03-03T02:05:58;2.10;99.90
37702;DHT22;23548;51.196;6.838;2023-03-03T02:08:31;2.10;99.90
37702;DHT22;23548;51.196;6.838;2023-03-03T02:11:00;2.00;99.90
37702;DHT22;23548;51.196;6.838;2023-03-03T02:13:26;2.10;99.90
37702;DHT22;23548;51.196;6.838;2023-03-03T02:15:52;2.10;99.90
37702;DHT22;23548;51.196;6.838;2023-03-03T02:18:19;2.10;99.90
37702;DHT22;23548;51.196;6.838;2023-03-03T02:28:37;1.90;99.90
37702;DHT22;23548;51.196;6.838;2023-03-03T02:31:06;2.00;99.90
37702;DHT22;23548;51.196;6.838;2023-03-03T02:33:35;1.90;99.90
37702;DHT22;23548;51.196;6.838;2023-03-03T02:39:24;2.20;99.90
37702;DHT22;23548;51.196;6.838;2023-03-03T02:44:33;2.20;99.90
37702;DHT22;23548;51.196;6.838;2023-03-03T02:46:59;2.10;99.90
37702;DHT22;23548;51.196;6.838;2023-03-03T02:49:27;2.10;99.90
37702;DHT22;23548;51.196;6.838;2023-03-03T02:51:54;2.00;99.90
37702;DHT22;23548;51.196;6.838;2023-03-03T02:54:22;2.00;99.90
37702;DHT22;23548;51.196;6.838;2023-03-03T02:56:48;2.10;99.90
37702;DHT22;23548;51.196;6.838;2023-03-03T02:59:15;2.10;99.90
37702;DHT22;23548;51.196;6.838;2023-03-03T03:01:41;2.10;99.90
37702;DHT22;23548;51.196;6.838;2023-03-03T03:06:35;2.30;99.90
37702;DHT22;23548;51.196;6.838;2023-03-03T03:09:02;2.30;99.90
37702;DHT22;23548;51.196;6.838;2023-03-03T03:11:28;2.30;99.90
37702;DHT22;23548;51.196;6.838;2023-03-03T03:13:54;2.20;99.90
37702;DHT22;23548;51.196;6.838;2023-03-03T03:16:20;2.20;99.90
37702;DHT22;23548;51.196;6.838;2023-03-03T03:18:45;2.30;99.90
37702;DHT22;23548;51.196;6.838;2023-03-03T03:21:12;2.20;99.90
37702;DHT22;23548;51.196;6.838;2023-03-03T03:23:38;2.20;99.90
37702;DHT22;23548;51.196;6.838;2023-03-03T03:26:05;2.20;99.90
37702;DHT22;23548;51.196;6.838;2023-03-03T03:28:31;2.20;99.90
37702;DHT22;23548;51.196;6.838;2023-03-03T03:30:57;2.20;99.90
37702;DHT22;23548;51.196;6.838;2023-03-03T03:33:24;2.20;99.90
37702;DHT22;23548;51.196;6.838;2023-03-03T03:35:50;2.20;99.90
37702;DHT22;23548;51.196;6.838;2023-03-03T03:38:16;2.30;99.90
37702;DHT22;23548;51.196;6.838;2023-03-03T03:40:42;2.30;99.90
37702;DHT22;23548;51.196;6.838;2023-03-03T03:43:08;2.30;99.90
37702;DHT22;23548;51.196;6.838;2023-03-03T03:45:34;2.30;99.90
37702;DHT22;23548;51.196;6.838;2023-03-03T03:47:59;2.30;99.90
37702;DHT22;23548;51.196;6.838;2023-03-03T03:50:25;2.30;99.90
37702;DHT22;23548;51.196;6.838;2023-03-03T03:52:52;2.20;99.90
37702;DHT22;23548;51.196;6.838;2023-03-03T03:55:17;2.20;99.90
37702;DHT22;23548;51.196;6.838;2023-03-03T03:57:43;2.20;99.90
37702;DHT22;23548;51.196;6.838;2023-03-03T04:00:10;2.10;99.90
37702;DHT22;23548;51.196;6.838;2023-03-03T04:02:36;2.30;99.90
37702;DHT22;23548;51.196;6.838;2023-03-03T04:05:04;2.30;99.90
37702;DHT22;23548;51.196;6.838;2023-03-03T04:07:30;2.40;99.90
37702;DHT22;23548;51.196;6.838;2023-03-03T04:09:55;2.30;99.90
37702;DHT22;23548;51.196;6.838;2023-03-03T04:12:21;2.30;99.90
37702;DHT22;23548;51.196;6.838;2023-03-03T04:14:47;2.30;99.90
37702;DHT22;23548;51.196;6.838;2023-03-03T04:17:21;2.20;99.90
37702;DHT22;23548;51.196;6.838;2023-03-03T04:19:47;2.20;99.90
37702;DHT22;23548;51.196;6.838;2023-03-03T04:22:12;2.20;99.90
37702;DHT22;23548;51.196;6.838;2023-03-03T04:24:39;2.20;99.90
37702;DHT22;23548;51.196;6.838;2023-03-03T04:27:05;2.20;99.90
37702;DHT22;23548;51.196;6.838;2023-03-03T04:29:33;2.10;99.90
37702;DHT22;23548;51.196;6.838;2023-03-03T04:31:59;2.10;99.90
37702;DHT22;23548;51.196;6.838;2023-03-03T04:34:24;2.00;99.90
37702;DHT22;23548;51.196;6.838;2023-03-03T04:36:50;2.00;99.90
37702;DHT22;23548;51.196;6.838;2023-03-03T04:39:16;2.00;99.90
37702;DHT22;23548;51.196;6.838;2023-03-03T04:41:41;1.90;99.90
37702;DHT22;23548;51.196;6.838;2023-03-03T04:44:07;1.90;99.90
37702;DHT22;23548;51.196;6.838;2023-03-03T04:46:33;1.90;99.90
37702;DHT22;23548;51.196;6.838;2023-03-03T04:48:58;1.90;99.90
37702;DHT22;23548;51.196;6.838;2023-03-03T04:51:24;1.90;99.90
37702;DHT22;23548;51.196;6.838;2023-03-03T04:53:50;1.90;99.90
37702;DHT22;23548;51.196;6.838;2023-03-03T04:56:15;1.90;99.90
37702;DHT22;23548;51.196;6.838;2023-03-03T04:58:41;2.00;99.90
37702;DHT22;23548;51.196;6.838;2023-03-03T05:01:11;2.10;99.90
37702;DHT22;23548;51.196;6.838;2023-03-03T05:03:37;2.10;99.90
37702;DHT22;23548;51.196;6.838;2023-03-03T05:06:03;2.00;99.90
37702;DHT22;23548;51.196;6.838;2023-03-03T05:08:29;2.00;99.90
37702;DHT22;23548;51.196;6.838;2023-03-03T05:10:55;2.10;99.90
37702;DHT22;23548;51.196;6.838;2023-03-03T05:13:21;2.10;99.90
37702;DHT22;23548;51.196;6.838;2023-03-03T05:15:54;2.10;99.90
37702;DHT22;23548;51.196;6.838;2023-03-03T05:18:21;2.10;99.90
37702;DHT22;23548;51.196;6.838;2023-03-03T05:20:48;2.00;99.90
37702;DHT22;23548;51.196;6.838;2023-03-03T05:23:14;2.10;99.90
37702;DHT22;23548;51.196;6.838;2023-03-03T05:25:40;2.00;99.90
37702;DHT22;23548;51.196;6.838;2023-03-03T05:28:07;1.90;99.90
37702;DHT22;23548;51.196;6.838;2023-03-03T05:30:33;2.00;99.90
37702;DHT22;23548;51.196;6.838;2023-03-03T05:32:59;1.90;99.90
37702;DHT22;23548;51.196;6.838;2023-03-03T05:35:26;1.90;99.90
37702;DHT22;23548;51.196;6.838;2023-03-03T05:37:51;1.90;99.90
37702;DHT22;23548;51.196;6.838;2023-03-03T05:40:17;1.80;99.90
37702;DHT22;23548;51.196;6.838;2023-03-03T05:42:44;1.70;99.90
37702;DHT22;23548;51.196;6.838;2023-03-03T05:45:10;1.70;99.90
37702;DHT22;23548;51.196;6.838;2023-03-03T05:47:37;1.80;99.90
37702;DHT22;23548;51.196;6.838;2023-03-03T05:50:06;1.70;99.90
37702;DHT22;23548;51.196;6.838;2023-03-03T05:52:32;1.80;99.90
37702;DHT22;23548;51.196;6.838;2023-03-03T05:54:58;1.80;99.90
37702;DHT22;23548;51.196;6.838;2023-03-03T05:57:24;1.90;99.90
37702;DHT22;23548;51.196;6.838;2023-03-03T05:59:50;1.80;99.90
37702;DHT22;23548;51.196;6.838;2023-03-03T06:02:16;2.00;99.90
37702;DHT22;23548;51.196;6.838;2023-03-03T06:04:42;2.00;99.90
37702;DHT22;23548;51.196;6.838;2023-03-03T06:07:08;2.10;99.90
37702;DHT22;23548;51.196;6.838;2023-03-03T06:09:33;2.10;99.90
37702;DHT22;23548;51.196;6.838;2023-03-03T06:11:59;2.10;99.90
37702;DHT22;23548;51.196;6.838;2023-03-03T06:14:25;2.10;99.90
37702;DHT22;23548;51.196;6.838;2023-03-03T06:16:51;2.10;99.90
37702;DHT22;23548;51.196;6.838;2023-03-03T06:19:17;2.10;99.90
37702;DHT22;23548;51.196;6.838;2023-03-03T06:21:43;2.10;99.90
37702;DHT22;23548;51.196;6.838;2023-03-03T06:24:09;2.00;99.90
37702;DHT22;23548;51.196;6.838;2023-03-03T06:26:34;2.10;99.90
37702;DHT22;23548;51.196;6.838;2023-03-03T06:29:00;2.10;99.90
37702;DHT22;23548;51.196;6.838;2023-03-03T06:31:26;2.00;99.90
37702;DHT22;23548;51.196;6.838;2023-03-03T06:33:52;2.00;99.90
37702;DHT22;23548;51.196;6.838;2023-03-03T06:36:19;2.00;99.90
37702;DHT22;23548;51.196;6.838;2023-03-03T06:38:45;2.00;99.90
37702;DHT22;23548;51.196;6.838;2023-03-03T06:41:11;1.80;99.90
37702;DHT22;23548;51.196;6.838;2023-03-03T06:43:37;1.70;99.90
37702;DHT22;23548;51.196;6.838;2023-03-03T06:46:04;1.70;99.90
37702;DHT22;23548;51.196;6.838;2023-03-03T06:48:31;1.90;99.90
37702;DHT22;23548;51.196;6.838;2023-03-03T06:50:59;2.00;99.90
37702;DHT22;23548;51.196;6.838;2023-03-03T06:53:26;2.10;99.90
37702;DHT22;23548;51.196;6.838;2023-03-03T06:55:54;2.10;99.90
37702;DHT22;23548;51.196;6.838;2023-03-03T06:58:21;2.10;99.90
37702;DHT22;23548;51.196;6.838;2023-03-03T07:00:59;2.20;99.90
37702;DHT22;23548;51.196;6.838;2023-03-03T07:03:31;2.20;99.90
37702;DHT22;23548;51.196;6.838;2023-03-03T07:05:58;2.20;99.90
37702;DHT22;23548;51.196;6.838;2023-03-03T07:08:24;2.20;99.90
37702;DHT22;23548;51.196;6.838;2023-03-03T07:10:51;2.20;99.90
37702;DHT22;23548;51.196;6.838;2023-03-03T07:13:23;2.20;99.90
37702;DHT22;23548;51.196;6.838;2023-03-03T07:15:51;2.30;99.90
37702;DHT22;23548;51.196;6.838;2023-03-03T07:18:43;2.30;99.90
37702;DHT22;23548;51.196;6.838;2023-03-03T07:21:17;2.30;99.90
37702;DHT22;23548;51.196;6.838;2023-03-03T07:23:45;2.40;99.90
37702;DHT22;23548;51.196;6.838;2023-03-03T07:26:16;2.40;99.90
37702;DHT22;23548;51.196;6.838;2023-03-03T07:28:49;2.40;99.90
37702;DHT22;23548;51.196;6.838;2023-03-03T07:31:30;2.40;99.90
37702;DHT22;23548;51.196;6.838;2023-03-03T07:33:59;2.50;99.90
37702;DHT22;23548;51.196;6.838;2023-03-03T07:36:35;2.50;99.90
37702;DHT22;23548;51.196;6.838;2023-03-03T07:39:13;2.40;99.90
37702;DHT22;23548;51.196;6.838;2023-03-03T07:41:41;2.40;99.90
37702;DHT22;23548;51.196;6.838;2023-03-03T07:44:33;2.50;99.90
37702;DHT22;23548;51.196;6.838;2023-03-03T07:49:37;2.60;99.90
37702;DHT22;23548;51.196;6.838;2023-03-03T07:52:26;2.60;99.90
37702;DHT22;23548;51.196;6.838;2023-03-03T07:54:57;2.70;99.90
37702;DHT22;23548;51.196;6.838;2023-03-03T07:57:41;2.80;99.90
37702;DHT22;23548;51.196;6.838;2023-03-03T08:02:57;2.90;99.90
37702;DHT22;23548;51.196;6.838;2023-03-03T08:10:49;2.80;99.90
37702;DHT22;23548;51.196;6.838;2023-03-03T08:13:33;2.80;99.90
37702;DHT22;23548;51.196;6.838;2023-03-03T08:18:49;2.80;99.90
37702;DHT22;23548;51.196;6.838;2023-03-03T08:21:15;2.70;99.90
37702;DHT22;23548;51.196;6.838;2023-03-03T08:23:42;2.70;99.90
37702;DHT22;23548;51.196;6.838;2023-03-03T08:26:10;2.70;99.90
37702;DHT22;23548;51.196;6.838;2023-03-03T08:28:37;2.80;99.90
37702;DHT22;23548;51.196;6.838;2023-03-03T08:31:03;2.90;99.90
37702;DHT22;23548;51.196;6.838;2023-03-03T08:33:29;3.00;99.90
37702;DHT22;23548;51.196;6.838;2023-03-03T08:35:54;3.10;99.90
37702;DHT22;23548;51.196;6.838;2023-03-03T08:38:21;3.00;99.90
37702;DHT22;23548;51.196;6.838;2023-03-03T08:40:48;2.90;99.90
37702;DHT22;23548;51.196;6.838;2023-03-03T08:43:14;3.00;99.90
37702;DHT22;23548;51.196;6.838;2023-03-03T08:45:49;2.90;99.90
37702;DHT22;23548;51.196;6.838;2023-03-03T08:48:15;2.90;99.90
37702;DHT22;23548;51.196;6.838;2023-03-03T08:50:42;3.00;99.90
37702;DHT22;23548;51.196;6.838;2023-03-03T08:53:08;3.00;99.90
37702;DHT22;23548;51.196;6.838;2023-03-03T08:55:35;3.10;99.90
37702;DHT22;23548;51.196;6.838;2023-03-03T08:58:01;3.10;99.90
37702;DHT22;23548;51.196;6.838;2023-03-03T09:00:27;3.20;99.90
37702;DHT22;23548;51.196;6.838;2023-03-03T09:02:53;3.30;99.90
37702;DHT22;23548;51.196;6.838;2023-03-03T09:05:20;3.30;99.90
37702;DHT22;23548;51.196;6.838;2023-03-03T09:07:47;3.40;99.90
37702;DHT22;23548;51.196;6.838;2023-03-03T09:10:16;3.50;99.90
37702;DHT22;23548;51.196;6.838;2023-03-03T09:12:44;3.50;99.90
37702;DHT22;23548;51.196;6.838;2023-03-03T09:17:49;3.30;99.90
37702;DHT22;23548;51.196;6.838;2023-03-03T09:22:53;3.10;99.90
37702;DHT22;23548;51.196;6.838;2023-03-03T09:25:26;3.10;99.90
37702;DHT22;23548;51.196;6.838;2023-03-03T09:27:56;3.20;99.90
37702;DHT22;23548;51.196;6.838;2023-03-03T09:32:52;3.30;99.90
37702;DHT22;23548;51.196;6.838;2023-03-03T09:35:34;3.30;99.90
37702;DHT22;23548;51.196;6.838;2023-03-03T09:44:05;3.10;99.90
37702;DHT22;23548;51.196;6.838;2023-03-03T09:46:55;3.20;99.90
37702;DHT22;23548;51.196;6.838;2023-03-03T09:54:55;3.70;99.90
37702;DHT22;23548;51.196;6.838;2023-03-03T10:00:15;3.20;99.90
37702;DHT22;23548;51.196;6.838;2023-03-03T10:05:44;3.50;99.90
37702;DHT22;23548;51.196;6.838;2023-03-03T10:09:16;3.70;99.90
37702;DHT22;23548;51.196;6.838;2023-03-03T10:19:57;3.70;99.90
37702;DHT22;23548;51.196;6.838;2023-03-03T10:25:43;3.80;99.90
37702;DHT22;23548;51.196;6.838;2023-03-03T10:28:24;3.90;99.90
37702;DHT22;23548;51.196;6.838;2023-03-03T10:33:41;4.00;99.90
37702;DHT22;23548;51.196;6.838;2023-03-03T10:37:14;4.10;99.90
37702;DHT22;23548;51.196;6.838;2023-03-03T10:55:45;4.10;99.90
37702;DHT22;23548;51.196;6.838;2023-03-03T10:58:31;4.20;99.90
37702;DHT22;23548;51.196;6.838;2023-03-03T11:02:03;4.40;99.90
37702;DHT22;23548;51.196;6.838;2023-03-03T11:09:11;4.10;99.90
37702;DHT22;23548;51.196;6.838;2023-03-03T11:14:50;4.50;99.90
37702;DHT22;23548;51.196;6.838;2023-03-03T11:23:19;5.10;99.90
37702;DHT22;23548;51.196;6.838;2023-03-03T11:31:18;5.60;99.90
37702;DHT22;23548;51.196;6.838;2023-03-03T11:39:11;5.40;99.90
37702;DHT22;23548;51.196;6.838;2023-03-03T11:55:37;5.80;99.90
37702;DHT22;23548;51.196;6.838;2023-03-03T11:58:21;5.90;99.90
37702;DHT22;23548;51.196;6.838;2023-03-03T12:04:19;5.80;99.90
37702;DHT22;23548;51.196;6.838;2023-03-03T12:24:28;5.40;99.90
37702;DHT22;23548;51.196;6.838;2023-03-03T12:32:25;5.90;99.90
37702;DHT22;23548;51.196;6.838;2023-03-03T12:40:45;6.00;99.90
37702;DHT22;23548;51.196;6.838;2023-03-03T12:46:18;6.20;99.90
37702;DHT22;23548;51.196;6.838;2023-03-03T12:48:46;6.00;99.90
37702;DHT22;23548;51.196;6.838;2023-03-03T12:56:52;6.30;99.90
37702;DHT22;23548;51.196;6.838;2023-03-03T13:05:10;5.90;99.90
37702;DHT22;23548;51.196;6.838;2023-03-03T13:10:08;5.60;99.90
37702;DHT22;23548;51.196;6.838;2023-03-03T13:13:08;5.80;99.90
37702;DHT22;23548;51.196;6.838;2023-03-03T13:15:46;5.90;99.90
37702;DHT22;23548;51.196;6.838;2023-03-03T13:20:48;7.00;99.90
37702;DHT22;23548;51.196;6.838;2023-03-03T13:23:40;7.40;99.90
37702;DHT22;23548;51.196;6.838;2023-03-03T13:26:25;7.20;99.90
37702;DHT22;23548;51.196;6.838;2023-03-03T13:37:31;7.20;99.90
37702;DHT22;23548;51.196;6.838;2023-03-03T13:40:23;7.40;99.90
37702;DHT22;23548;51.196;6.838;2023-03-03T13:48:36;7.10;99.90
37702;DHT22;23548;51.196;6.838;2023-03-03T13:51:25;7.40;99.90
37702;DHT22;23548;51.196;6.838;2023-03-03T13:56:46;7.50;99.90
37702;DHT22;23548;51.196;6.838;2023-03-03T14:07:59;7.50;99.90
37702;DHT22;23548;51.196;6.838;2023-03-03T14:10:33;7.50;99.90
37702;DHT22;23548;51.196;6.838;2023-03-03T14:13:19;7.20;99.90
37702;DHT22;23548;51.196;6.838;2023-03-03T14:16:00;6.90;99.90
37702;DHT22;23548;51.196;6.838;2023-03-03T14:18:38;7.20;99.90
37702;DHT22;23548;51.196;6.838;2023-03-03T14:21:13;7.60;99.90
37702;DHT22;23548;51.196;6.838;2023-03-03T14:24:08;7.70;99.90
37702;DHT22;23548;51.196;6.838;2023-03-03T14:26:53;8.00;99.90
37702;DHT22;23548;51.196;6.838;2023-03-03T14:31:50;8.00;99.90
37702;DHT22;23548;51.196;6.838;2023-03-03T14:36:56;7.30;99.90
37702;DHT22;23548;51.196;6.838;2023-03-03T14:39:38;7.60;99.90
37702;DHT22;23548;51.196;6.838;2023-03-03T14:42:31;8.30;99.90
37702;DHT22;23548;51.196;6.838;2023-03-03T14:45:00;8.50;99.90
37702;DHT22;23548;51.196;6.838;2023-03-03T14:47:29;9.00;99.90
37702;DHT22;23548;51.196;6.838;2023-03-03T14:49:57;10.00;99.90
37702;DHT22;23548;51.196;6.838;2023-03-03T14:52:29;11.00;99.90
37702;DHT22;23548;51.196;6.838;2023-03-03T14:54:57;10.70;99.90
37702;DHT22;23548;51.196;6.838;2023-03-03T14:57:39;10.60;99.90
37702;DHT22;23548;51.196;6.838;2023-03-03T15:05:19;12.30;99.90
37702;DHT22;23548;51.196;6.838;2023-03-03T15:07:47;12.70;99.60
37702;DHT22;23548;51.196;6.838;2023-03-03T15:10:32;12.50;98.80
37702;DHT22;23548;51.196;6.838;2023-03-03T15:13:23;12.80;98.20
37702;DHT22;23548;51.196;6.838;2023-03-03T15:18:17;12.40;97.00
37702;DHT22;23548;51.196;6.838;2023-03-03T15:20:51;12.00;97.60
37702;DHT22;23548;51.196;6.838;2023-03-03T15:35:03;11.70;97.00
37702;DHT22;23548;51.196;6.838;2023-03-03T15:43:10;8.50;99.90
37702;DHT22;23548;51.196;6.838;2023-03-03T15:46:05;7.90;99.90
37702;DHT22;23548;51.196;6.838;2023-03-03T15:48:52;7.50;99.90
37702;DHT22;23548;51.196;6.838;2023-03-03T16:01:49;6.40;99.90
37702;DHT22;23548;51.196;6.838;2023-03-03T16:04:29;6.40;99.90
37702;DHT22;23548;51.196;6.838;2023-03-03T16:07:04;6.30;99.90
37702;DHT22;23548;51.196;6.838;2023-03-03T16:09:53;6.30;99.90
37702;DHT22;23548;51.196;6.838;2023-03-03T16:20:32;6.20;99.90
37702;DHT22;23548;51.196;6.838;2023-03-03T16:26:17;6.30;99.90
37702;DHT22;23548;51.196;6.838;2023-03-03T16:31:44;6.10;99.90
37702;DHT22;23548;51.196;6.838;2023-03-03T16:44:57;5.90;99.90
37702;DHT22;23548;51.196;6.838;2023-03-03T16:50:43;5.70;99.90
37702;DHT22;23548;51.196;6.838;2023-03-03T17:03:59;5.00;99.90
37702;DHT22;23548;51.196;6.838;2023-03-03T17:12:12;4.80;99.90
37702;DHT22;23548;51.196;6.838;2023-03-03T17:15:19;4.60;99.90
37702;DHT22;23548;51.196;6.838;2023-03-03T17:20:49;4.30;99.90
37702;DHT22;23548;51.196;6.838;2023-03-03T17:32:27;3.80;99.90
37702;DHT22;23548;51.196;6.838;2023-03-03T17:37:36;3.60;99.90
37702;DHT22;23548;51.196;6.838;2023-03-03T17:40:29;3.50;99.90
37702;DHT22;23548;51.196;6.838;2023-03-03T17:45:42;3.30;99.90
37702;DHT22;23548;51.196;6.838;2023-03-03T17:48:11;3.20;99.90
37702;DHT22;23548;51.196;6.838;2023-03-03T17:51:16;3.30;99.90
37702;DHT22;23548;51.196;6.838;2023-03-03T17:53:54;3.30;99.90
37702;DHT22;23548;51.196;6.838;2023-03-03T18:18:40;3.20;99.90
37702;DHT22;23548;51.196;6.838;2023-03-03T18:21:20;3.20;99.90
37702;DHT22;23548;51.196;6.838;2023-03-03T18:23:48;3.30;99.90
37702;DHT22;23548;51.196;6.838;2023-03-03T18:26:36;3.30;99.90
37702;DHT22;23548;51.196;6.838;2023-03-03T18:29:25;3.20;99.90
37702;DHT22;23548;51.196;6.838;2023-03-03T18:37:10;2.80;99.90
37702;DHT22;23548;51.196;6.838;2023-03-03T18:42:39;2.70;99.90
37702;DHT22;23548;51.196;6.838;2023-03-03T18:48:14;2.60;99.90
37702;DHT22;23548;51.196;6.838;2023-03-03T18:50:46;2.70;99.90
37702;DHT22;23548;51.196;6.838;2023-03-03T18:53:28;2.80;99.90
37702;DHT22;23548;51.196;6.838;2023-03-03T18:56:01;2.80;99.90
37702;DHT22;23548;51.196;6.838;2023-03-03T18:58:38;2.90;99.90
37702;DHT22;23548;51.196;6.838;2023-03-03T19:03:55;2.90;99.90
37702;DHT22;23548;51.196;6.838;2023-03-03T19:09:05;3.00;99.90
37702;DHT22;23548;51.196;6.838;2023-03-03T19:11:42;3.00;99.90
37702;DHT22;23548;51.196;6.838;2023-03-03T19:22:29;3.00;99.90
37702;DHT22;23548;51.196;6.838;2023-03-03T19:27:42;3.20;99.90
37702;DHT22;23548;51.196;6.838;2023-03-03T19:50:24;3.40;99.90
37702;DHT22;23548;51.196;6.838;2023-03-03T20:01:29;3.50;99.90
37702;DHT22;23548;51.196;6.838;2023-03-03T20:16:11;3.40;99.90
37702;DHT22;23548;51.196;6.838;2023-03-03T20:21:27;3.50;99.90
37702;DHT22;23548;51.196;6.838;2023-03-03T20:43:03;3.70;99.90
37702;DHT22;23548;51.196;6.838;2023-03-03T20:49:02;3.70;99.90
37702;DHT22;23548;51.196;6.838;2023-03-03T20:56:55;3.90;99.90
37702;DHT22;23548;51.196;6.838;2023-03-03T20:59:40;3.90;99.90
37702;DHT22;23548;51.196;6.838;2023-03-03T21:05:14;3.90;99.90
37702;DHT22;23548;51.196;6.838;2023-03-03T21:10:20;3.90;99.90
37702;DHT22;23548;51.196;6.838;2023-03-03T21:12:50;3.90;99.90
37702;DHT22;23548;51.196;6.838;2023-03-03T21:15:28;3.90;99.90
37702;DHT22;23548;51.196;6.838;2023-03-03T21:17:55;4.00;99.90
37702;DHT22;23548;51.196;6.838;2023-03-03T21:20:34;4.00;99.90
37702;DHT22;23548;51.196;6.838;2023-03-03T21:23:03;4.00;99.90
37702;DHT22;23548;51.196;6.838;2023-03-03T21:25:50;4.10;99.90
37702;DHT22;23548;51.196;6.838;2023-03-03T21:28:29;4.10;99.90
37702;DHT22;23548;51.196;6.838;2023-03-03T21:31:15;4.00;99.90
37702;DHT22;23548;51.196;6.838;2023-03-03T21:33:45;4.10;99.90
37702;DHT22;23548;51.196;6.838;2023-03-03T21:36:13;4.20;99.90
37702;DHT22;23548;51.196;6.838;2023-03-03T21:38:39;4.10;99.90
37702;DHT22;23548;51.196;6.838;2023-03-03T21:41:07;4.20;99.90
37702;DHT22;23548;51.196;6.838;2023-03-03T21:43:37;4.20;99.90
37702;DHT22;23548;51.196;6.838;2023-03-03T21:46:10;4.20;99.90
37702;DHT22;23548;51.196;6.838;2023-03-03T21:48:41;4.10;99.90
37702;DHT22;23548;51.196;6.838;2023-03-03T21:51:08;4.10;99.90
37702;DHT22;23548;51.196;6.838;2023-03-03T21:53:35;4.10;99.90
37702;DHT22;23548;51.196;6.838;2023-03-03T21:56:01;4.20;99.90
37702;DHT22;23548;51.196;6.838;2023-03-03T21:58:27;4.10;99.90
37702;DHT22;23548;51.196;6.838;2023-03-03T22:00:52;4.20;99.90
37702;DHT22;23548;51.196;6.838;2023-03-03T22:03:21;4.10;99.90
37702;DHT22;23548;51.196;6.838;2023-03-03T22:05:47;4.10;99.90
37702;DHT22;23548;51.196;6.838;2023-03-03T22:08:18;4.20;99.90
37702;DHT22;23548;51.196;6.838;2023-03-03T22:10:50;4.20;99.90
37702;DHT22;23548;51.196;6.838;2023-03-03T22:13:21;4.20;99.90
37702;DHT22;23548;51.196;6.838;2023-03-03T22:15:47;4.30;99.90
37702;DHT22;23548;51.196;6.838;2023-03-03T22:18:14;4.30;99.90
37702;DHT22;23548;51.196;6.838;2023-03-03T22:20:46;4.30;99.90
37702;DHT22;23548;51.196;6.838;2023-03-03T22:23:13;4.30;99.90
37702;DHT22;23548;51.196;6.838;2023-03-03T22:25:40;4.30;99.90
37702;DHT22;23548;51.196;6.838;2023-03-03T22:28:06;4.30;99.90
37702;DHT22;23548;51.196;6.838;2023-03-03T22:30:32;4.30;99.90
37702;DHT22;23548;51.196;6.838;2023-03-03T22:33:03;4.30;99.90
37702;DHT22;23548;51.196;6.838;2023-03-03T22:35:29;4.40;99.90
37702;DHT22;23548;51.196;6.838;2023-03-03T22:38:01;4.50;99.90
37702;DHT22;23548;51.196;6.838;2023-03-03T22:40:28;4.50;99.90
37702;DHT22;23548;51.196;6.838;2023-03-03T22:42:54;4.50;99.90
37702;DHT22;23548;51.196;6.838;2023-03-03T22:45:21;4.50;99.90
37702;DHT22;23548;51.196;6.838;2023-03-03T22:47:47;4.50;99.90
37702;DHT22;23548;51.196;6.838;2023-03-03T22:50:13;4.50;99.90
37702;DHT22;23548;51.196;6.838;2023-03-03T22:52:39;4.60;99.90
37702;DHT22;23548;51.196;6.838;2023-03-03T22:55:05;4.60;99.90
37702;DHT22;23548;51.196;6.838;2023-03-03T22:57:31;4.70;99.90
37702;DHT22;23548;51.196;6.838;2023-03-03T22:59:57;4.60;99.90
37702;DHT22;23548;51.196;6.838;2023-03-03T23:02:24;4.70;99.90
37702;DHT22;23548;51.196;6.838;2023-03-03T23:04:50;4.60;99.90
37702;DHT22;23548;51.196;6.838;2023-03-03T23:07:23;4.60;99.90
37702;DHT22;23548;51.196;6.838;2023-03-03T23:09:49;4.60;99.90
37702;DHT22;23548;51.196;6.838;2023-03-03T23:12:15;4.50;99.90
37702;DHT22;23548;51.196;6.838;2023-03-03T23:14:41;4.50;99.90
37702;DHT22;23548;51.196;6.838;2023-03-03T23:17:06;4.50;99.90
37702;DHT22;23548;51.196;6.838;2023-03-03T23:19:32;4.50;99.90
37702;DHT22;23548;51.196;6.838;2023-03-03T23:21:58;4.60;99.90
37702;DHT22;23548;51.196;6.838;2023-03-03T23:24:24;4.70;99.90
37702;DHT22;23548;51.196;6.838;2023-03-03T23:26:49;4.70;99.90